PWSweather.com
Personal Weather Stations
Station Observations
CW4114
Near Downtown, Rogers City, MI 49779

Near DowntownRogers City, MI 49779

Lat: 45.417443, Lon: -83.810642

Elevation: 605

Station Type: Davis Vantage Pro2 w/Solar

Latest ConditionsUpdated 9:43:30 AM EDT Sunday, Jun 25, 2017
Currently Today's Max Today's Min Today's Average
Temperature 58.6°F14.8°C 58.8°F14.9°C 54.9°F12.7°C 56.9°F13.8°C
Dew Point 55.8°F13.2°C 56.5°F13.6°C 54.0°F12.2°C 55.4°F13.0°C
Winds 1.3 mph N2.1 kmh N 6.7 mph W10.8 kmh W - 2.8 mph 4.5 kmh
Wind Gusts 4.3 mph6.9 kmh 12.8 mph20.6 kmh - -
Humidity 90% 97% 89% 95%
Pressure 29.91 in1012.9 mb 29.91 in1012.9 mb 29.87 in1011.5 mb -
Precipitation - 0.02 in0.5 mm - -
Hour Temp Dew Point Humidity Winds Wind Gusts Pressure Precip Precip Rate Daily Precip Total
09:43 AM 58.6°F14.8°C 55.8°F13.2°C 90% 1.3 mph N2.1 kmh N 4.3 mph6.9 kmh 29.91 in1012.9 mb 0.00 in0.0 mm 0.00 in0.0 mm 0.02 in0.5 mm
09:38 AM 58.8°F14.9°C 56.1°F13.4°C 91% 1.3 mph NE2.1 kmh NE 3.1 mph5.0 kmh 29.91 in1012.9 mb 0.00 in0.0 mm 0.00 in0.0 mm 0.02 in0.5 mm
09:33 AM 58.6°F14.8°C 55.9°F13.3°C 91% 2.7 mph NE4.3 kmh NE 4.3 mph6.9 kmh 29.91 in1012.9 mb 0.00 in0.0 mm 0.00 in0.0 mm 0.02 in0.5 mm
09:28 AM 58.6°F14.8°C 55.9°F13.3°C 91% 1.8 mph NNE2.9 kmh NNE 4.3 mph6.9 kmh 29.91 in1012.9 mb 0.00 in0.0 mm 0.00 in0.0 mm 0.02 in0.5 mm
09:23 AM 58.3°F14.6°C 55.0°F12.8°C 89% 0.7 mph NNW1.1 kmh NNW 6.3 mph10.1 kmh 29.91 in1012.9 mb 0.00 in0.0 mm 0.00 in0.0 mm 0.02 in0.5 mm
09:18 AM 58.1°F14.5°C 54.9°F12.7°C 89% 1.6 mph W2.6 kmh W 6.3 mph10.1 kmh 29.91 in1012.9 mb 0.00 in0.0 mm 0.00 in0.0 mm 0.02 in0.5 mm
09:13 AM 58.3°F14.6°C 55.0°F12.8°C 89% 2.9 mph NNE4.7 kmh NNE 5.4 mph8.7 kmh 29.91 in1012.9 mb 0.00 in0.0 mm 0.00 in0.0 mm 0.02 in0.5 mm
09:08 AM 58.3°F14.6°C 55.4°F13.0°C 90% 0.9 mph NE1.4 kmh NE 2.0 mph3.2 kmh 29.91 in1012.9 mb 0.00 in0.0 mm 0.00 in0.0 mm 0.02 in0.5 mm
09:03 AM 58.5°F14.7°C 55.6°F13.1°C 90% 0.2 mph NNW0.3 kmh NNW 2.0 mph3.2 kmh 29.91 in1012.9 mb 0.00 in0.0 mm 0.00 in0.0 mm 0.02 in0.5 mm
08:58 AM 58.6°F14.8°C 55.8°F13.2°C 90% 0.7 mph WNW1.1 kmh WNW 4.3 mph6.9 kmh 29.91 in1012.9 mb 0.00 in0.0 mm 0.00 in0.0 mm 0.02 in0.5 mm
08:53 AM 58.5°F14.7°C 55.8°F13.2°C 91% 0.2 mph N0.3 kmh N 3.1 mph5.0 kmh 29.91 in1012.9 mb 0.00 in0.0 mm 0.00 in0.0 mm 0.02 in0.5 mm
08:48 AM 58.5°F14.7°C 55.8°F13.2°C 91% 0.7 mph NNW1.1 kmh NNW 4.3 mph6.9 kmh 29.91 in1012.9 mb 0.00 in0.0 mm 0.00 in0.0 mm 0.02 in0.5 mm
08:43 AM 58.3°F14.6°C 55.6°F13.1°C 91% 0.2 mph W0.3 kmh W 3.1 mph5.0 kmh 29.91 in1012.9 mb 0.00 in0.0 mm 0.00 in0.0 mm 0.02 in0.5 mm
08:38 AM 58.3°F14.6°C 55.9°F13.3°C 92% 1.1 mph NNE1.8 kmh NNE 3.1 mph5.0 kmh 29.91 in1012.9 mb 0.00 in0.0 mm 0.00 in0.0 mm 0.02 in0.5 mm
08:33 AM 58.3°F14.6°C 55.9°F13.3°C 92% 0.2 mph NNE0.3 kmh NNE 3.1 mph5.0 kmh 29.91 in1012.9 mb 0.00 in0.0 mm 0.00 in0.0 mm 0.02 in0.5 mm
08:28 AM 58.3°F14.6°C 55.9°F13.3°C 92% 0.2 mph N0.3 kmh N 1.1 mph1.8 kmh 29.91 in1012.9 mb 0.00 in0.0 mm 0.00 in0.0 mm 0.02 in0.5 mm
08:23 AM 58.5°F14.7°C 56.1°F13.4°C 92% Calm Calm 3.1 mph5.0 kmh 29.90 in1012.5 mb 0.00 in0.0 mm 0.00 in0.0 mm 0.02 in0.5 mm
08:18 AM 58.6°F14.8°C 55.9°F13.3°C 91% 0.2 mph WNW0.3 kmh WNW 4.3 mph6.9 kmh 29.90 in1012.5 mb 0.00 in0.0 mm 0.00 in0.0 mm 0.02 in0.5 mm
08:13 AM 58.8°F14.9°C 56.5°F13.6°C 92% 0.4 mph NW0.6 kmh NW 3.1 mph5.0 kmh 29.90 in1012.5 mb 0.00 in0.0 mm 0.00 in0.0 mm 0.02 in0.5 mm
08:08 AM 58.8°F14.9°C 56.5°F13.6°C 92% 0.4 mph NW0.6 kmh NW 4.3 mph6.9 kmh 29.90 in1012.5 mb 0.00 in0.0 mm 0.00 in0.0 mm 0.02 in0.5 mm
08:03 AM 58.5°F14.7°C 56.5°F13.6°C 93% 1.1 mph W1.8 kmh W 4.3 mph6.9 kmh 29.90 in1012.5 mb 0.00 in0.0 mm 0.00 in0.0 mm 0.02 in0.5 mm
07:58 AM 57.9°F14.4°C 56.1°F13.4°C 94% 2.0 mph NW3.2 kmh NW 8.5 mph13.7 kmh 29.90 in1012.5 mb 0.00 in0.0 mm 0.00 in0.0 mm 0.02 in0.5 mm
07:53 AM 57.6°F14.2°C 56.1°F13.4°C 95% 3.4 mph W5.5 kmh W 11.6 mph18.7 kmh 29.90 in1012.5 mb 0.00 in0.0 mm 0.00 in0.0 mm 0.02 in0.5 mm
07:48 AM 57.2°F14.0°C 56.1°F13.4°C 96% 6.7 mph W10.8 kmh W 12.8 mph20.6 kmh 29.90 in1012.5 mb 0.00 in0.0 mm 0.00 in0.0 mm 0.02 in0.5 mm
07:43 AM 56.8°F13.8°C 55.9°F13.3°C 97% 5.4 mph WSW8.7 kmh WSW 7.4 mph11.9 kmh 29.90 in1012.5 mb 0.00 in0.0 mm 0.00 in0.0 mm 0.02 in0.5 mm
07:38 AM 56.3°F13.5°C 55.4°F13.0°C 97% 4.5 mph W7.2 kmh W 9.6 mph15.4 kmh 29.90 in1012.5 mb 0.00 in0.0 mm 0.00 in0.0 mm 0.02 in0.5 mm
07:33 AM 55.9°F13.3°C 55.0°F12.8°C 97% 3.1 mph WSW5.0 kmh WSW 5.4 mph8.7 kmh 29.90 in1012.5 mb 0.00 in0.0 mm 0.00 in0.0 mm 0.02 in0.5 mm
07:28 AM 55.9°F13.3°C 55.0°F12.8°C 97% 3.8 mph W6.1 kmh W 9.6 mph15.4 kmh 29.89 in1012.2 mb 0.00 in0.0 mm 0.00 in0.0 mm 0.02 in0.5 mm
07:23 AM 55.9°F13.3°C 55.0°F12.8°C 97% 4.9 mph WNW7.9 kmh WNW 7.4 mph11.9 kmh 29.90 in1012.5 mb 0.00 in0.0 mm 0.00 in0.0 mm 0.02 in0.5 mm
07:18 AM 55.9°F13.3°C 55.0°F12.8°C 97% 3.6 mph WSW5.8 kmh WSW 5.4 mph8.7 kmh 29.90 in1012.5 mb 0.00 in0.0 mm 0.00 in0.0 mm 0.02 in0.5 mm
07:13 AM 55.9°F13.3°C 55.0°F12.8°C 97% 2.7 mph W4.3 kmh W 4.3 mph6.9 kmh 29.89 in1012.2 mb 0.00 in0.0 mm 0.00 in0.0 mm 0.02 in0.5 mm
07:08 AM 55.9°F13.3°C 55.0°F12.8°C 97% 1.6 mph W2.6 kmh W 5.4 mph8.7 kmh 29.89 in1012.2 mb 0.00 in0.0 mm 0.00 in0.0 mm 0.02 in0.5 mm
07:03 AM 55.8°F13.2°C 54.9°F12.7°C 97% 3.6 mph W5.8 kmh W 7.4 mph11.9 kmh 29.89 in1012.2 mb 0.00 in0.0 mm 0.00 in0.0 mm 0.02 in0.5 mm
06:58 AM 55.6°F13.1°C 54.7°F12.6°C 97% 4.7 mph W7.6 kmh W 6.3 mph10.1 kmh 29.89 in1012.2 mb 0.00 in0.0 mm 0.00 in0.0 mm 0.02 in0.5 mm
06:53 AM 55.6°F13.1°C 54.7°F12.6°C 97% 3.4 mph WNW5.5 kmh WNW 5.4 mph8.7 kmh 29.89 in1012.2 mb 0.00 in0.0 mm 0.00 in0.0 mm 0.02 in0.5 mm
06:48 AM 55.4°F13.0°C 54.5°F12.5°C 97% 4.5 mph WSW7.2 kmh WSW 6.3 mph10.1 kmh 29.89 in1012.2 mb 0.00 in0.0 mm 0.00 in0.0 mm 0.02 in0.5 mm
06:43 AM 55.4°F13.0°C 54.5°F12.5°C 97% 1.8 mph WSW2.9 kmh WSW 4.3 mph6.9 kmh 29.89 in1012.2 mb 0.00 in0.0 mm 0.00 in0.0 mm 0.02 in0.5 mm
06:38 AM 55.4°F13.0°C 54.5°F12.5°C 97% 2.7 mph WSW4.3 kmh WSW 4.3 mph6.9 kmh 29.89 in1012.2 mb 0.00 in0.0 mm 0.00 in0.0 mm 0.02 in0.5 mm
06:33 AM 55.2°F12.9°C 54.3°F12.4°C 97% 1.8 mph NNW2.9 kmh NNW 3.1 mph5.0 kmh 29.89 in1012.2 mb 0.00 in0.0 mm 0.00 in0.0 mm 0.02 in0.5 mm
06:28 AM 55.2°F12.9°C 54.3°F12.4°C 97% 0.2 mph NW0.3 kmh NW 3.1 mph5.0 kmh 29.89 in1012.2 mb 0.00 in0.0 mm 0.00 in0.0 mm 0.02 in0.5 mm
06:23 AM 55.2°F12.9°C 54.3°F12.4°C 97% 0.2 mph NW0.3 kmh NW 2.0 mph3.2 kmh 29.89 in1012.2 mb 0.00 in0.0 mm 0.00 in0.0 mm 0.02 in0.5 mm
06:18 AM 55.0°F12.8°C 54.1°F12.3°C 97% Calm Calm 3.1 mph5.0 kmh 29.89 in1012.2 mb 0.00 in0.0 mm 0.00 in0.0 mm 0.02 in0.5 mm
06:13 AM 55.0°F12.8°C 54.1°F12.3°C 97% 2.0 mph W3.2 kmh W 3.1 mph5.0 kmh 29.88 in1011.9 mb 0.00 in0.0 mm 0.00 in0.0 mm 0.02 in0.5 mm
06:08 AM 54.9°F12.7°C 54.0°F12.2°C 97% 0.9 mph W1.4 kmh W 3.1 mph5.0 kmh 29.88 in1011.9 mb 0.00 in0.0 mm 0.00 in0.0 mm 0.02 in0.5 mm
06:03 AM 54.9°F12.7°C 54.0°F12.2°C 97% 0.4 mph NW0.6 kmh NW 2.0 mph3.2 kmh 29.88 in1011.9 mb 0.00 in0.0 mm 0.00 in0.0 mm 0.02 in0.5 mm
05:58 AM 54.9°F12.7°C 54.0°F12.2°C 97% Calm Calm 1.1 mph1.8 kmh 29.88 in1011.9 mb 0.00 in0.0 mm 0.00 in0.0 mm 0.02 in0.5 mm
05:53 AM 54.9°F12.7°C 54.0°F12.2°C 97% Calm Calm -- 29.88 in1011.9 mb 0.00 in0.0 mm 0.00 in0.0 mm 0.02 in0.5 mm
05:48 AM 54.9°F12.7°C 54.0°F12.2°C 97% Calm Calm -- 29.88 in1011.9 mb 0.00 in0.0 mm 0.00 in0.0 mm 0.02 in0.5 mm
05:43 AM 54.9°F12.7°C 54.0°F12.2°C 97% Calm Calm -- 29.88 in1011.9 mb 0.00 in0.0 mm 0.00 in0.0 mm 0.02 in0.5 mm
05:38 AM 54.9°F12.7°C 54.0°F12.2°C 97% Calm Calm 2.0 mph3.2 kmh 29.88 in1011.9 mb 0.00 in0.0 mm 0.00 in0.0 mm 0.02 in0.5 mm
05:33 AM 55.0°F12.8°C 54.1°F12.3°C 97% 1.3 mph W2.1 kmh W 4.3 mph6.9 kmh 29.88 in1011.9 mb 0.00 in0.0 mm 0.00 in0.0 mm 0.02 in0.5 mm
05:28 AM 55.0°F12.8°C 54.1°F12.3°C 97% 2.5 mph WSW4.0 kmh WSW 4.3 mph6.9 kmh 29.87 in1011.5 mb 0.00 in0.0 mm 0.00 in0.0 mm 0.02 in0.5 mm
05:23 AM 55.0°F12.8°C 54.1°F12.3°C 97% 2.9 mph WSW4.7 kmh WSW 5.4 mph8.7 kmh 29.87 in1011.5 mb 0.00 in0.0 mm 0.00 in0.0 mm 0.02 in0.5 mm
05:18 AM 55.2°F12.9°C 54.3°F12.4°C 97% 2.5 mph WSW4.0 kmh WSW 5.4 mph8.7 kmh 29.87 in1011.5 mb 0.00 in0.0 mm 0.00 in0.0 mm 0.02 in0.5 mm
05:13 AM 55.4°F13.0°C 54.5°F12.5°C 97% 2.5 mph WSW4.0 kmh WSW 5.4 mph8.7 kmh 29.87 in1011.5 mb 0.00 in0.0 mm 0.00 in0.0 mm 0.02 in0.5 mm
05:08 AM 55.4°F13.0°C 54.5°F12.5°C 97% 3.8 mph WSW6.1 kmh WSW 5.4 mph8.7 kmh 29.87 in1011.5 mb 0.00 in0.0 mm 0.00 in0.0 mm 0.02 in0.5 mm
05:03 AM 55.6°F13.1°C 54.7°F12.6°C 97% 2.7 mph WSW4.3 kmh WSW 4.3 mph6.9 kmh 29.87 in1011.5 mb 0.00 in0.0 mm 0.00 in0.0 mm 0.02 in0.5 mm
04:58 AM 55.8°F13.2°C 54.9°F12.7°C 97% 3.1 mph WSW5.0 kmh WSW 6.3 mph10.1 kmh 29.87 in1011.5 mb 0.00 in0.0 mm 0.00 in0.0 mm 0.02 in0.5 mm
04:53 AM 55.8°F13.2°C 54.9°F12.7°C 97% 3.4 mph WSW5.5 kmh WSW 4.3 mph6.9 kmh 29.87 in1011.5 mb 0.00 in0.0 mm 0.00 in0.0 mm 0.02 in0.5 mm
04:48 AM 55.8°F13.2°C 54.9°F12.7°C 97% 2.7 mph SW4.3 kmh SW 5.4 mph8.7 kmh 29.87 in1011.5 mb 0.00 in0.0 mm 0.00 in0.0 mm 0.02 in0.5 mm
04:43 AM 55.8°F13.2°C 54.9°F12.7°C 97% 2.7 mph WSW4.3 kmh WSW 4.3 mph6.9 kmh 29.87 in1011.5 mb 0.00 in0.0 mm 0.00 in0.0 mm 0.02 in0.5 mm
04:38 AM 55.8°F13.2°C 54.9°F12.7°C 97% 3.1 mph WSW5.0 kmh WSW 5.4 mph8.7 kmh 29.87 in1011.5 mb 0.00 in0.0 mm 0.00 in0.0 mm 0.02 in0.5 mm
04:33 AM 55.8°F13.2°C 54.9°F12.7°C 97% 2.7 mph WSW4.3 kmh WSW 6.3 mph10.1 kmh 29.87 in1011.5 mb 0.00 in0.0 mm 0.00 in0.0 mm 0.02 in0.5 mm
04:28 AM 55.8°F13.2°C 54.9°F12.7°C 97% 2.2 mph WSW3.5 kmh WSW 5.4 mph8.7 kmh 29.87 in1011.5 mb 0.00 in0.0 mm 0.00 in0.0 mm 0.02 in0.5 mm
04:23 AM 55.8°F13.2°C 54.9°F12.7°C 97% 4.0 mph WSW6.4 kmh WSW 6.3 mph10.1 kmh 29.88 in1011.9 mb 0.00 in0.0 mm 0.00 in0.0 mm 0.02 in0.5 mm
04:18 AM 55.8°F13.2°C 54.9°F12.7°C 97% 3.4 mph W5.5 kmh W 5.4 mph8.7 kmh 29.88 in1011.9 mb 0.00 in0.0 mm 0.00 in0.0 mm 0.02 in0.5 mm
04:13 AM 55.8°F13.2°C 54.7°F12.6°C 96% 3.6 mph WSW5.8 kmh WSW 5.4 mph8.7 kmh 29.88 in1011.9 mb 0.00 in0.0 mm 0.00 in0.0 mm 0.02 in0.5 mm
04:08 AM 55.8°F13.2°C 54.7°F12.6°C 96% 3.1 mph WSW5.0 kmh WSW 5.4 mph8.7 kmh 29.88 in1011.9 mb 0.00 in0.0 mm 0.00 in0.0 mm 0.02 in0.5 mm
04:03 AM 55.9°F13.3°C 54.9°F12.7°C 96% 3.4 mph WSW5.5 kmh WSW 5.4 mph8.7 kmh 29.88 in1011.9 mb 0.00 in0.0 mm 0.00 in0.0 mm 0.02 in0.5 mm
03:58 AM 55.9°F13.3°C 54.9°F12.7°C 96% 3.1 mph W5.0 kmh W 6.3 mph10.1 kmh 29.88 in1011.9 mb 0.00 in0.0 mm 0.00 in0.0 mm 0.02 in0.5 mm
03:53 AM 55.9°F13.3°C 54.9°F12.7°C 96% 3.6 mph W5.8 kmh W 5.4 mph8.7 kmh 29.88 in1011.9 mb 0.00 in0.0 mm 0.00 in0.0 mm 0.02 in0.5 mm
03:48 AM 55.9°F13.3°C 54.9°F12.7°C 96% 2.2 mph W3.5 kmh W 4.3 mph6.9 kmh 29.88 in1011.9 mb 0.00 in0.0 mm 0.00 in0.0 mm 0.02 in0.5 mm
03:43 AM 56.1°F13.4°C 55.0°F12.8°C 96% 3.4 mph W5.5 kmh W 5.4 mph8.7 kmh 29.88 in1011.9 mb 0.00 in0.0 mm 0.00 in0.0 mm 0.02 in0.5 mm
03:38 AM 56.1°F13.4°C 55.0°F12.8°C 96% 2.2 mph WSW3.5 kmh WSW 4.3 mph6.9 kmh 29.88 in1011.9 mb 0.00 in0.0 mm 0.00 in0.0 mm 0.02 in0.5 mm
03:33 AM 56.3°F13.5°C 55.2°F12.9°C 96% 4.0 mph SW6.4 kmh SW 8.5 mph13.7 kmh 29.88 in1011.9 mb 0.00 in0.0 mm 0.00 in0.0 mm 0.02 in0.5 mm
03:28 AM 56.5°F13.6°C 55.4°F13.0°C 96% 4.7 mph WSW7.6 kmh WSW 7.4 mph11.9 kmh 29.88 in1011.9 mb 0.00 in0.0 mm 0.00 in0.0 mm 0.02 in0.5 mm
03:23 AM 56.5°F13.6°C 55.4°F13.0°C 96% 4.3 mph WSW6.9 kmh WSW 7.4 mph11.9 kmh 29.88 in1011.9 mb 0.00 in0.0 mm 0.00 in0.0 mm 0.02 in0.5 mm
03:18 AM 56.7°F13.7°C 55.6°F13.1°C 96% 5.4 mph WSW8.7 kmh WSW 7.4 mph11.9 kmh 29.88 in1011.9 mb 0.00 in0.0 mm 0.00 in0.0 mm 0.02 in0.5 mm
03:13 AM 56.7°F13.7°C 55.6°F13.1°C 96% 4.3 mph W6.9 kmh W 7.4 mph11.9 kmh 29.88 in1011.9 mb 0.00 in0.0 mm 0.00 in0.0 mm 0.02 in0.5 mm
03:08 AM 56.7°F13.7°C 55.6°F13.1°C 96% 4.7 mph WSW7.6 kmh WSW 7.4 mph11.9 kmh 29.88 in1011.9 mb 0.00 in0.0 mm 0.00 in0.0 mm 0.02 in0.5 mm
03:03 AM 56.7°F13.7°C 55.6°F13.1°C 96% 4.0 mph WSW6.4 kmh WSW 7.4 mph11.9 kmh 29.89 in1012.2 mb 0.00 in0.0 mm 0.00 in0.0 mm 0.02 in0.5 mm
02:58 AM 56.7°F13.7°C 55.6°F13.1°C 96% 4.5 mph WSW7.2 kmh WSW 7.4 mph11.9 kmh 29.89 in1012.2 mb 0.00 in0.0 mm 0.00 in0.0 mm 0.02 in0.5 mm
02:53 AM 56.7°F13.7°C 55.6°F13.1°C 96% 3.4 mph SW5.5 kmh SW 7.4 mph11.9 kmh 29.88 in1011.9 mb 0.00 in0.0 mm 0.00 in0.0 mm 0.02 in0.5 mm
02:48 AM 56.7°F13.7°C 55.6°F13.1°C 96% 4.5 mph WSW7.2 kmh WSW 6.3 mph10.1 kmh 29.89 in1012.2 mb 0.00 in0.0 mm 0.00 in0.0 mm 0.02 in0.5 mm
02:43 AM 56.8°F13.8°C 55.8°F13.2°C 96% 3.1 mph W5.0 kmh W 6.3 mph10.1 kmh 29.89 in1012.2 mb 0.00 in0.0 mm 0.00 in0.0 mm 0.02 in0.5 mm
02:38 AM 56.8°F13.8°C 55.8°F13.2°C 96% 3.6 mph SW5.8 kmh SW 5.4 mph8.7 kmh 29.89 in1012.2 mb 0.00 in0.0 mm 0.00 in0.0 mm 0.02 in0.5 mm
02:33 AM 56.8°F13.8°C 55.8°F13.2°C 96% 3.1 mph W5.0 kmh W 6.3 mph10.1 kmh 29.89 in1012.2 mb 0.01 in0.3 mm 0.00 in0.0 mm 0.02 in0.5 mm
02:28 AM 57.0°F13.9°C 55.9°F13.3°C 96% 3.6 mph WSW5.8 kmh WSW 5.4 mph8.7 kmh 29.89 in1012.2 mb 0.02 in0.5 mm 0.00 in0.0 mm 0.02 in0.5 mm
02:23 AM 57.0°F13.9°C 55.9°F13.3°C 96% 3.6 mph W5.8 kmh W 5.4 mph8.7 kmh 29.90 in1012.5 mb 0.02 in0.5 mm 0.00 in0.0 mm 0.02 in0.5 mm
02:18 AM 57.2°F14.0°C 56.1°F13.4°C 96% 2.7 mph WSW4.3 kmh WSW 5.4 mph8.7 kmh 29.90 in1012.5 mb 0.02 in0.5 mm 0.00 in0.0 mm 0.02 in0.5 mm
02:13 AM 57.4°F14.1°C 55.9°F13.3°C 95% 3.6 mph WSW5.8 kmh WSW 5.4 mph8.7 kmh 29.89 in1012.2 mb 0.02 in0.5 mm 0.00 in0.0 mm 0.02 in0.5 mm
02:08 AM 57.4°F14.1°C 55.9°F13.3°C 95% 3.1 mph WSW5.0 kmh WSW 5.4 mph8.7 kmh 29.90 in1012.5 mb 0.02 in0.5 mm 0.00 in0.0 mm 0.02 in0.5 mm
02:03 AM 57.6°F14.2°C 56.1°F13.4°C 95% 3.6 mph W5.8 kmh W 5.4 mph8.7 kmh 29.90 in1012.5 mb 0.02 in0.5 mm 0.00 in0.0 mm 0.02 in0.5 mm
01:58 AM 57.7°F14.3°C 56.3°F13.5°C 95% 2.9 mph WSW4.7 kmh WSW 5.4 mph8.7 kmh 29.90 in1012.5 mb 0.02 in0.5 mm 0.00 in0.0 mm 0.02 in0.5 mm
01:53 AM 57.7°F14.3°C 56.3°F13.5°C 95% 3.6 mph WSW5.8 kmh WSW 6.3 mph10.1 kmh 29.90 in1012.5 mb 0.02 in0.5 mm 0.00 in0.0 mm 0.02 in0.5 mm
01:48 AM 57.7°F14.3°C 56.3°F13.5°C 95% 3.6 mph SW5.8 kmh SW 5.4 mph8.7 kmh 29.90 in1012.5 mb 0.02 in0.5 mm 0.00 in0.0 mm 0.02 in0.5 mm
01:43 AM 57.7°F14.3°C 55.9°F13.3°C 94% 3.1 mph W5.0 kmh W 5.4 mph8.7 kmh 29.90 in1012.5 mb 0.02 in0.5 mm 0.12 in3.0 mm 0.02 in0.5 mm
01:38 AM 57.7°F14.3°C 55.9°F13.3°C 94% 3.4 mph SW5.5 kmh SW 6.3 mph10.1 kmh 29.90 in1012.5 mb 0.01 in0.3 mm 0.00 in0.0 mm 0.01 in0.3 mm
01:33 AM 57.7°F14.3°C 55.9°F13.3°C 94% 3.4 mph SW5.5 kmh SW 7.4 mph11.9 kmh 29.90 in1012.5 mb 0.01 in0.3 mm 0.12 in3.0 mm 0.01 in0.3 mm
01:28 AM 57.7°F14.3°C 55.8°F13.2°C 93% 4.7 mph WSW7.6 kmh WSW 8.5 mph13.7 kmh 29.90 in1012.5 mb 0.00 in0.0 mm 0.00 in0.0 mm 0.00 in0.0 mm
01:23 AM 57.9°F14.4°C 56.1°F13.4°C 94% 5.6 mph WSW9.0 kmh WSW 9.6 mph15.4 kmh 29.90 in1012.5 mb 0.00 in0.0 mm 0.00 in0.0 mm 0.00 in0.0 mm
01:18 AM 58.1°F14.5°C 56.3°F13.5°C 94% 4.0 mph WSW6.4 kmh WSW 9.6 mph15.4 kmh 29.90 in1012.5 mb 0.00 in0.0 mm 0.00 in0.0 mm 0.00 in0.0 mm
01:13 AM 58.1°F14.5°C 56.1°F13.4°C 93% 5.1 mph WSW8.2 kmh WSW 8.5 mph13.7 kmh 29.90 in1012.5 mb 0.00 in0.0 mm 0.00 in0.0 mm 0.00 in0.0 mm
01:08 AM 58.1°F14.5°C 56.1°F13.4°C 93% 4.5 mph SW7.2 kmh SW 11.6 mph18.7 kmh 29.90 in1012.5 mb 0.00 in0.0 mm 0.00 in0.0 mm 0.00 in0.0 mm
01:03 AM 58.3°F14.6°C 56.3°F13.5°C 93% 4.3 mph SSW6.9 kmh SSW 8.5 mph13.7 kmh 29.90 in1012.5 mb 0.00 in0.0 mm 0.00 in0.0 mm 0.00 in0.0 mm
12:58 AM 58.3°F14.6°C 56.3°F13.5°C 93% 4.0 mph SW6.4 kmh SW 8.5 mph13.7 kmh 29.90 in1012.5 mb 0.00 in0.0 mm 0.00 in0.0 mm 0.00 in0.0 mm
12:53 AM 58.3°F14.6°C 56.3°F13.5°C 93% 5.8 mph SW9.3 kmh SW 9.6 mph15.4 kmh 29.90 in1012.5 mb 0.00 in0.0 mm 0.00 in0.0 mm 0.00 in0.0 mm
12:48 AM 58.1°F14.5°C 56.1°F13.4°C 93% 5.1 mph SW8.2 kmh SW 8.5 mph13.7 kmh 29.90 in1012.5 mb 0.00 in0.0 mm 0.00 in0.0 mm 0.00 in0.0 mm
12:43 AM 58.1°F14.5°C 56.1°F13.4°C 93% 3.8 mph SW6.1 kmh SW 6.3 mph10.1 kmh 29.90 in1012.5 mb 0.00 in0.0 mm 0.00 in0.0 mm 0.00 in0.0 mm
12:38 AM 58.1°F14.5°C 56.1°F13.4°C 93% 3.1 mph WSW5.0 kmh WSW 7.4 mph11.9 kmh 29.90 in1012.5 mb 0.00 in0.0 mm 0.00 in0.0 mm 0.00 in0.0 mm
12:33 AM 58.1°F14.5°C 56.1°F13.4°C 93% 3.8 mph WSW6.1 kmh WSW 7.4 mph11.9 kmh 29.90 in1012.5 mb 0.00 in0.0 mm 0.00 in0.0 mm 0.00 in0.0 mm
12:28 AM 58.1°F14.5°C 56.1°F13.4°C 93% 3.6 mph WSW5.8 kmh WSW 6.3 mph10.1 kmh 29.90 in1012.5 mb 0.00 in0.0 mm 0.00 in0.0 mm 0.00 in0.0 mm
12:23 AM 58.3°F14.6°C 56.3°F13.5°C 93% 3.1 mph WSW5.0 kmh WSW 5.4 mph8.7 kmh 29.90 in1012.5 mb 0.00 in0.0 mm 0.00 in0.0 mm 0.00 in0.0 mm
12:18 AM 58.3°F14.6°C 56.3°F13.5°C 93% 4.3 mph WSW6.9 kmh WSW 7.4 mph11.9 kmh 29.90 in1012.5 mb 0.00 in0.0 mm 0.00 in0.0 mm 0.00 in0.0 mm
12:13 AM 58.3°F14.6°C 56.3°F13.5°C 93% 4.0 mph WSW6.4 kmh WSW 6.3 mph10.1 kmh 29.90 in1012.5 mb 0.00 in0.0 mm 0.00 in0.0 mm 0.00 in0.0 mm
12:08 AM 58.3°F14.6°C 56.3°F13.5°C 93% 3.4 mph W5.5 kmh W 6.3 mph10.1 kmh 29.90 in1012.5 mb 0.00 in0.0 mm 0.00 in0.0 mm 0.00 in0.0 mm
12:03 AM 58.3°F14.6°C 56.3°F13.5°C 93% 4.9 mph WSW7.9 kmh WSW 7.4 mph11.9 kmh 29.90 in1012.5 mb 0.00 in0.0 mm 0.00 in0.0 mm 0.00 in0.0 mm